KTDZ/TDZ METAR and TAF weather

Enter ICAO airport designator
Station Type Date Time Source
KTDZ METAR 2020/04/07 16:53 UTC NOAA

KTDZ 071653Z AUTO 21007KT 10SM BKN035 BKN110 17/14 A2981 RMK AO2 SLP093 T01670139


Station Type Date Time Source
KTDZ Decoded METAR 2020/04/07 16:53 UTC NOAA

TOLEDO METCALF FIELD, OH, United States (KTDZ) 41-34N 83-29W 189M
Apr 07, 2020 - 12:53 PM EDT / 2020.04.07 1653 UTC
Wind: from the SSW (210 degrees) at 8 MPH (7 KT):0
Visibility: 10 mile(s):0
Sky conditions: mostly cloudy
Temperature: 62.1 F (16.7 C)
Dew Point: 57.0 F (13.9 C)
Relative Humidity: 83%
Pressure (altimeter): 29.81 in. Hg (1009 hPa)
ob: KTDZ 071653Z AUTO 21007KT 10SM BKN035 BKN110 17/14 A2981 RMK AO2 SLP093 T01670139
cycle: 17

Station Type Date Time Source
KTDZ TAF UTC NOAA

Error!

Example: see airport list